Time;durP1;ratioP1;P1;durP2;ratioP2;P2;SDS_P1;SDS_P2;PMS_P1;PMS_P2;Temp;Humidity;BMP_temperature;BMP_pressure;BME280_temperature;BME280_humidity;BME280_pressure;Samples;Min_cycle;Max_cycle;Signal;HPM_P1;HPM_P2
2021/04/11 00:01:20;;;;;;;0.20;0.20;;;15.20;57.40;;;;;;5073598;28;20060;-55
2021/04/11 00:03:45;;;;;;;0.30;0.20;;;15.20;57.40;;;;;;5073605;28;20029;-55
2021/04/11 00:06:11;;;;;;;0.30;0.20;;;15.20;57.50;;;;;;5073752;28;20175;-53
2021/04/11 00:08:36;;;;;;;0.57;0.30;;;15.20;57.50;;;;;;5055708;28;20032;-55
2021/04/11 00:11:03;;;;;;;0.20;0.20;;;15.10;57.50;;;;;;5055279;28;20063;-54
2021/04/11 00:13:36;;;;;;;0.40;0.30;;;15.20;57.50;;;;;;5073330;28;20025;-54
2021/04/11 00:16:03;;;;;;;0.30;0.20;;;15.20;57.50;;;;;;5073301;28;20029;-55
2021/04/11 00:18:28;;;;;;;0.30;0.20;;;15.10;57.50;;;;;;5073598;28;20021;-54
2021/04/11 00:20:54;;;;;;;0.60;0.10;;;15.10;57.60;;;;;;5055708;28;20139;-55
2021/04/11 00:23:22;;;;;;;0.22;0.20;;;15.10;57.60;;;;;;5073191;28;20095;-54
2021/04/11 00:25:48;;;;;;;0.35;0.30;;;15.50;57.80;;;;;;5073267;28;20580;-52
2021/04/11 00:28:15;;;;;;;0.25;0.15;;;15.10;57.70;;;;;;5072962;28;20024;-53
2021/04/11 00:30:42;;;;;;;0.20;0.20;;;15.00;57.70;;;;;;5072595;28;20028;-52
2021/04/11 00:33:18;;;;;;;0.20;0.20;;;15.00;57.70;;;;;;5073128;28;20054;-51
2021/04/11 00:35:44;;;;;;;0.60;0.30;;;15.00;57.70;;;;;;5072832;28;20048;-52
2021/04/11 00:38:10;;;;;;;1.52;0.20;;;15.00;57.80;;;;;;5072884;28;20067;-55
2021/04/11 00:40:37;;;;;;;0.40;0.10;;;15.00;57.70;;;;;;5073094;28;20459;-54
2021/04/11 00:43:09;;;;;;;0.20;0.20;;;15.30;57.80;;;;;;5072977;28;20090;-53
2021/04/11 00:45:42;;;;;;;0.30;0.30;;;15.00;57.70;;;;;;5072936;28;20086;-54
2021/04/11 00:48:10;;;;;;;0.20;0.20;;;15.00;57.70;;;;;;5072561;28;20055;-54
2021/04/11 00:50:36;;;;;;;0.28;0.20;;;14.90;57.70;;;;;;5074082;28;20052;-54
2021/04/11 00:53:02;;;;;;;0.45;0.25;;;14.90;57.70;;;;;;5072422;28;20083;-54
2021/04/11 00:55:28;;;;;;;0.20;0.20;;;14.90;57.80;;;;;;5072614;28;20024;-54
2021/04/11 00:57:55;;;;;;;0.82;0.20;;;14.90;57.70;;;;;;5072655;28;20021;-55
2021/04/11 01:00:27;;;;;;;0.20;0.20;;;14.50;57.50;;;;;;5071905;28;20056;-54
2021/04/11 01:02:54;;;;;;;0.10;0.10;;;14.80;57.70;;;;;;5072307;28;20024;-54
2021/04/11 01:05:26;;;;;;;0.20;0.20;;;14.90;57.70;;;;;;5072314;28;20078;-55
2021/04/11 01:07:54;;;;;;;0.20;0.20;;;14.80;57.80;;;;;;5072203;28;20028;-54
2021/04/11 01:10:26;;;;;;;0.93;0.40;;;14.80;57.80;;;;;;5072105;28;20467;-55
2021/04/11 01:12:53;;;;;;;0.20;0.20;;;14.80;57.90;;;;;;5072322;28;20028;-53
2021/04/11 01:15:30;;;;;;;0.20;0.20;;;14.80;57.80;;;;;;5072493;28;20101;-54
2021/04/11 01:17:56;;;;;;;0.65;0.22;;;14.80;57.70;;;;;;5055390;28;20052;-55
2021/04/11 01:20:23;;;;;;;0.80;0.32;;;14.80;57.70;;;;;;5071960;28;20058;-55
2021/04/11 01:22:58;;;;;;;0.20;0.20;;;15.10;57.90;;;;;;5072169;28;20043;-54
2021/04/11 01:25:28;;;;;;;0.22;0.20;;;14.70;57.70;;;;;;5072433;28;20182;-54
2021/04/11 01:27:55;;;;;;;;;;;14.70;57.80;;;;;;5072884;28;20469;-55
2021/04/11 01:30:32;;;;;;;0.20;0.20;;;14.70;57.70;;;;;;5072074;28;19962;-54
2021/04/11 01:33:00;;;;;;;0.20;0.20;;;14.70;57.90;;;;;;5072130;28;20024;-54
2021/04/11 01:35:28;;;;;;;0.85;0.43;;;14.70;80.20;;;;;;5071808;28;20539;-54
2021/04/11 01:37:55;;;;;;;0.20;0.10;;;14.60;57.80;;;;;;5071893;28;20470;-52
2021/04/11 01:40:39;;;;;;;0.20;0.20;;;14.60;57.80;;;;;;5071956;28;20564;-55
2021/04/11 01:43:07;;;;;;;0.80;0.20;;;14.60;57.80;;;;;;5071909;28;20024;-54
2021/04/11 01:45:36;;;;;;;0.40;0.30;;;14.60;57.70;;;;;;5072016;28;20044;-55
2021/04/11 01:48:03;;;;;;;0.25;0.20;;;15.10;58.00;;;;;;5072035;28;20017;-54
2021/04/11 01:50:29;;;;;;;0.20;0.20;;;14.60;57.80;;;;;;5073079;28;20048;-53
2021/04/11 01:52:56;;;;;;;0.22;0.17;;;14.60;57.70;;;;;;5072069;28;20037;-54
2021/04/11 01:55:24;;;;;;;0.60;0.22;;;15.10;58.10;;;;;;5072022;28;20029;-53
2021/04/11 01:57:54;;;;;;;0.28;0.20;;;14.60;57.80;;;;;;5071937;28;20219;-55
2021/04/11 02:00:31;;;;;;;0.50;0.20;;;14.60;57.80;;;;;;5072012;28;20020;-54
2021/04/11 02:03:15;;;;;;;0.20;0.20;;;14.50;57.80;;;;;;5071561;28;20119;-54
2021/04/11 02:05:44;;;;;;;0.52;0.20;;;14.50;57.80;;;;;;5071602;28;20033;-54
2021/04/11 02:08:13;;;;;;;0.15;0.15;;;14.50;57.80;;;;;;5071856;28;20025;-55
2021/04/11 02:10:44;;;;;;;0.10;0.10;;;14.50;57.80;;;;;;5071667;28;20033;-56
2021/04/11 02:13:10;;;;;;;0.85;0.20;;;14.50;57.90;;;;;;5075041;28;20025;-53
2021/04/11 02:15:42;;;;;;;0.20;0.20;;;14.50;57.90;;;;;;5075615;28;20052;-54
2021/04/11 02:18:10;;;;;;;0.10;0.10;;;14.50;57.90;;;;;;5075491;28;20032;-53
2021/04/11 02:20:36;;;;;;;0.30;0.20;;;14.50;57.80;;;;;;5075811;28;20082;-54
2021/04/11 02:23:02;;;;;;;1.45;0.20;;;14.50;57.90;;;;;;5075394;28;20025;-53
2021/04/11 02:25:41;;;;;;;0.20;0.20;;;14.50;57.80;;;;;;5075354;28;20013;-54
2021/04/11 02:28:07;;;;;;;1.17;0.30;;;14.40;57.80;;;;;;5075320;28;20050;-54
2021/04/11 02:30:46;;;;;;;0.55;0.20;;;14.50;57.90;;;;;;5075450;28;20107;-54
2021/04/11 02:33:12;;;;;;;0.30;0.13;;;14.40;57.80;;;;;;5075444;28;20430;-54
2021/04/11 02:35:38;;;;;;;0.38;0.20;;;14.30;81.10;;;;;;5075227;28;20032;-54
2021/04/11 02:38:06;;;;;;;0.47;0.30;;;14.40;57.90;;;;;;5075382;28;20434;-53
2021/04/11 02:40:45;;;;;;;0.20;0.20;;;14.10;57.70;;;;;;5075482;28;20052;-53
2021/04/11 02:43:13;;;;;;;0.10;0.10;;;14.10;57.70;;;;;;5075070;28;20029;-54
2021/04/11 02:45:42;;;;;;;0.45;0.25;;;14.30;57.80;;;;;;5075104;28;20490;-55
2021/04/11 02:48:11;;;;;;;0.28;0.20;;;14.40;57.80;;;;;;5075127;28;20036;-52
2021/04/11 02:50:39;;;;;;;0.20;0.20;;;14.30;57.80;;;;;;5076626;27;20056;-54
2021/04/11 02:53:14;;;;;;;0.40;0.20;;;14.30;57.80;;;;;;5076201;27;20124;-54
2021/04/11 02:55:41;;;;;;;0.17;0.15;;;14.30;57.70;;;;;;5074914;28;20559;-53
2021/04/11 02:58:10;;;;;;;1.10;0.30;;;14.20;80.70;;;;;;5074925;28;20024;-52
2021/04/11 03:00:40;;;;;;;0.20;0.20;;;14.30;57.90;;;;;;5074776;28;20017;-54
2021/04/11 03:03:05;;;;;;;0.60;0.20;;;14.30;57.80;;;;;;5074956;28;20021;-53
2021/04/11 03:05:31;;;;;;;0.20;0.20;;;14.30;57.90;;;;;;5074654;28;20043;-55
2021/04/11 03:08:02;;;;;;;0.55;0.22;;;14.20;57.90;;;;;;5074677;28;20024;-54
2021/04/11 03:10:36;;;;;;;0.20;0.20;;;14.20;57.90;;;;;;5074871;28;20035;-54
2021/04/11 03:13:03;;;;;;;0.57;0.30;;;14.30;57.90;;;;;;5074538;28;20032;-55
2021/04/11 03:15:31;;;;;;;0.20;0.20;;;14.20;57.90;;;;;;5074761;28;20099;-55
2021/04/11 03:17:57;;;;;;;0.57;0.20;;;14.20;57.90;;;;;;5074413;28;20453;-53
2021/04/11 03:20:29;;;;;;;0.30;0.30;;;14.10;57.90;;;;;;5074722;28;20104;-54
2021/04/11 03:22:57;;;;;;;0.32;0.10;;;14.30;58.00;;;;;;5074012;28;20020;-54
2021/04/11 03:25:26;;;;;;;0.20;0.20;;;14.20;57.90;;;;;;5074312;28;20475;-55
2021/04/11 03:28:10;;;;;;;0.35;0.20;;;14.20;57.80;;;;;;5074295;28;20028;-53
2021/04/11 03:30:39;;;;;;;0.20;0.20;;;14.10;57.70;;;;;;5074212;28;20444;-54
2021/04/11 03:33:14;;;;;;;0.10;0.10;;;14.10;57.70;;;;;;5074272;28;20386;-52
2021/04/11 03:35:43;;;;;;;0.13;0.13;;;14.10;57.70;;;;;;5074122;28;20027;-53
2021/04/11 03:38:12;;;;;;;0.43;0.30;;;14.10;57.80;;;;;;5074392;28;20433;-51
2021/04/11 03:40:40;;;;;;;0.45;0.20;;;14.10;57.80;;;;;;5074068;28;20056;-53
2021/04/11 03:43:15;;;;;;;0.40;0.30;;;14.10;57.90;;;;;;5074241;28;20027;-55
2021/04/11 03:45:41;;;;;;;0.38;0.20;;;13.90;57.70;;;;;;5074078;28;20067;-53
2021/04/11 03:48:24;;;;;;;0.40;0.20;;;14.10;57.80;;;;;;5074155;28;20064;-54
2021/04/11 03:51:06;;;;;;;0.30;0.30;;;14.10;57.70;;;;;;5073923;28;20517;-54
2021/04/11 03:53:45;;;;;;;0.88;0.20;;;14.10;57.80;;;;;;5054146;28;20136;-54
2021/04/11 03:56:16;;;;;;;0.30;0.20;;;14.00;57.80;;;;;;5053933;28;20414;-53
2021/04/11 03:58:52;;;;;;;0.60;0.30;;;14.10;57.90;;;;;;5053483;28;20092;-54
2021/04/11 04:01:26;;;;;;;1.20;0.30;;;14.00;57.80;;;;;;5053843;28;20032;-54
2021/04/11 04:04:02;;;;;;;0.35;0.20;;;14.00;87.00;;;;;;5053796;28;20092;-54
2021/04/11 04:06:30;;;;;;;0.22;0.20;;;14.00;57.80;;;;;;5053502;28;20029;-54
2021/04/11 04:08:56;;;;;;;0.60;0.20;;;14.00;57.80;;;;;;5053471;28;20049;-52
2021/04/11 04:11:37;;;;;;;1.35;0.30;;;14.00;57.70;;;;;;5053533;28;20040;-54
2021/04/11 04:14:33;;;;;;;1.10;0.40;;;14.00;57.70;;;;;;5053475;28;20025;-54
2021/04/11 04:17:19;;;;;;;0.50;0.30;;;13.80;57.70;;;;;;5053535;28;20506;-54
2021/04/11 04:19:45;;;;;;;0.40;0.20;;;14.00;57.70;;;;;;5053504;28;20029;-53
2021/04/11 04:22:30;;;;;;;1.08;0.50;;;13.90;57.70;;;;;;5053103;28;20052;-54
2021/04/11 04:25:21;;;;;;;0.20;0.20;;;14.00;57.70;;;;;;5053285;28;20568;-54
2021/04/11 04:27:49;;;;;;;0.43;0.15;;;13.90;57.70;;;;;;5053407;28;20024;-55
2021/04/11 04:30:51;;;;;;;0.22;0.20;;;14.90;58.20;;;;;;5053074;28;20107;-54
2021/04/11 04:33:32;;;;;;;0.73;0.20;;;13.90;57.60;;;;;;5039449;28;20053;-53
2021/04/11 04:36:09;;;;;;;0.43;0.20;;;13.90;57.70;;;;;;5052070;28;20060;-54
2021/04/11 04:39:27;;;;;;;0.77;0.30;;;13.90;57.80;;;;;;5053012;28;20468;-53
2021/04/11 04:42:04;;;;;;;0.60;0.40;;;14.10;86.20;;;;;;4990956;28;20035;-53
2021/04/11 04:45:00;;;;;;;0.30;0.28;;;13.90;57.70;;;;;;4991204;28;20053;-55
2021/04/11 04:47:36;;;;;;;0.77;0.50;;;13.90;57.70;;;;;;5043005;28;20115;-54
2021/04/11 04:50:12;;;;;;;0.30;0.30;;;13.70;57.70;;;;;;5052540;28;20040;-51
2021/04/11 04:52:42;;;;;;;0.47;0.30;;;13.80;57.70;;;;;;5067606;28;20064;-53
2021/04/11 04:55:24;;;;;;;0.82;0.40;;;13.80;57.70;;;;;;5072466;28;20048;-53
2021/04/11 04:58:23;;;;;;;0.82;0.40;;;13.80;57.70;;;;;;5072454;28;20024;-52
2021/04/11 05:00:54;;;;;;;0.30;0.30;;;13.80;57.20;;;;;;5050170;28;20115;-55
2021/04/11 05:03:25;;;;;;;0.30;0.20;;;13.80;57.80;;;;;;5072333;28;20052;-54
2021/04/11 05:06:04;;;;;;;0.30;0.20;;;13.60;86.70;;;;;;5072481;28;20028;-54
2021/04/11 05:08:37;;;;;;;0.80;0.15;;;13.70;57.70;;;;;;5072641;28;20032;-54
2021/04/11 05:11:18;;;;;;;0.30;0.20;;;13.60;87.10;;;;;;5072353;28;20033;-53
2021/04/11 05:13:51;;;;;;;0.43;0.20;;;13.80;57.70;;;;;;5072142;28;20039;-50
2021/04/11 05:16:25;;;;;;;1.65;0.20;;;13.60;86.40;;;;;;5072138;28;20028;-53
2021/04/11 05:19:19;;;;;;;0.45;0.20;;;13.80;57.60;;;;;;5072340;28;20017;-54
2021/04/11 05:21:51;;;;;;;0.40;0.20;;;13.90;58.30;;;;;;5072237;28;20026;-52
2021/04/11 05:24:33;;;;;;;0.35;0.20;;;14.00;86.80;;;;;;5071947;28;20024;-54
2021/04/11 05:27:05;;;;;;;0.35;0.28;;;14.00;58.10;;;;;;5072316;28;20390;-53
2021/04/11 05:30:06;;;;;;;0.40;0.40;;;14.30;87.20;;;;;;5071997;28;20020;-53
2021/04/11 05:32:32;;;;;;;;;;;14.20;58.20;;;;;;5072320;28;20059;-53
2021/04/11 05:34:58;;;;;;;0.40;0.20;;;14.20;86.50;;;;;;5071919;28;20023;-50
2021/04/11 05:37:29;;;;;;;0.45;0.20;;;14.30;57.50;;;;;;5071771;28;20024;-54
2021/04/11 05:40:06;;;;;;;0.52;0.20;;;14.30;58.20;;;;;;5072150;28;20078;-53
2021/04/11 05:42:51;;;;;;;1.65;0.25;;;14.40;58.00;;;;;;5071932;28;20024;-54
2021/04/11 05:45:31;;;;;;;0.20;0.20;;;14.40;57.90;;;;;;5071904;28;20025;-53
2021/04/11 05:48:20;;;;;;;0.20;0.20;;;14.50;57.80;;;;;;5072023;28;20051;-52
2021/04/11 05:51:02;;;;;;;0.52;0.28;;;14.50;57.70;;;;;;5072001;28;20037;-53
2021/04/11 05:53:46;;;;;;;2.25;0.30;;;14.50;57.60;;;;;;5073292;28;20053;-54
2021/04/11 05:56:19;;;;;;;0.47;0.25;;;14.40;86.10;;;;;;5071969;28;20082;-53
2021/04/11 05:58:53;;;;;;;0.85;0.30;;;14.50;90.30;;;;;;5071843;28;20360;-54
2021/04/11 06:01:25;;;;;;;0.35;0.20;;;14.50;57.40;;;;;;5071675;28;20029;-54
2021/04/11 06:04:03;;;;;;;0.73;0.30;;;14.50;93.50;;;;;;5071610;28;20064;-51
2021/04/11 06:06:45;;;;;;;0.38;0.20;;;14.50;57.60;;;;;;5071877;28;20021;-54
2021/04/11 06:09:11;;;;;;;0.30;0.20;;;14.50;57.40;;;;;;5071658;28;20024;-53
2021/04/11 06:11:57;;;;;;;0.20;0.20;;;14.50;57.40;;;;;;5071727;28;20037;-54
2021/04/11 06:14:32;;;;;;;0.45;0.30;;;14.50;57.30;;;;;;5071538;28;20025;-55
2021/04/11 06:16:58;;;;;;;0.90;0.30;;;14.50;57.30;;;;;;5071824;28;20027;-52
2021/04/11 06:19:24;;;;;;;0.17;0.10;;;14.50;57.30;;;;;;5071842;28;20033;-55
2021/04/11 06:22:05;;;;;;;0.52;0.32;;;14.40;57.20;;;;;;5071342;28;20020;-54
2021/04/11 06:24:49;;;;;;;0.52;0.20;;;14.40;57.30;;;;;;5071482;28;20491;-55
2021/04/11 06:27:31;;;;;;;0.73;0.30;;;14.30;57.20;;;;;;5071242;28;20078;-54
2021/04/11 06:30:13;;;;;;;0.68;0.38;;;14.40;57.30;;;;;;5071608;28;20020;-53
2021/04/11 06:32:48;;;;;;;0.43;0.30;;;14.30;57.30;;;;;;5071377;28;20395;-53
2021/04/11 06:35:17;;;;;;;1.13;0.32;;;14.30;56.90;;;;;;5071107;28;20032;-55
2021/04/11 06:37:45;;;;;;;0.23;0.20;;;14.30;57.40;;;;;;5071483;28;20031;-54
2021/04/11 06:40:29;;;;;;;1.45;0.25;;;14.70;57.60;;;;;;5071183;28;20277;-54
2021/04/11 06:43:16;;;;;;;0.40;0.20;;;14.30;57.40;;;;;;5071496;28;20039;-54
2021/04/11 06:45:52;;;;;;;0.30;0.30;;;14.30;57.50;;;;;;5071418;28;20048;-52
2021/04/11 06:49:02;;;;;;;0.32;0.22;;;14.30;57.60;;;;;;5071139;28;20021;-57
2021/04/11 06:52:04;;;;;;;1.02;0.30;;;15.00;57.80;;;;;;5067204;28;20051;-53
2021/04/11 06:55:20;;;;;;;0.80;0.30;;;14.30;57.20;;;;;;5055985;28;20029;-53
2021/04/11 06:58:06;;;;;;;0.25;0.22;;;14.30;57.40;;;;;;4970736;28;20110;-54
2021/04/11 07:01:28;;;;;;;0.20;0.20;;;14.40;57.50;;;;;;5066841;28;20543;-53
2021/04/11 07:04:28;;;;;;;1.30;0.30;;;14.40;57.50;;;;;;4973429;28;20407;-54
2021/04/11 07:07:08;;;;;;;0.60;0.20;;;14.40;57.40;;;;;;4973611;28;20038;-53
2021/04/11 07:09:40;;;;;;;;;;;14.40;57.50;;;;;;5053592;28;20438;-50
2021/04/11 07:12:37;;;;;;;2.00;0.30;;;14.50;57.40;;;;;;5074423;28;20366;-53
2021/04/11 07:15:47;;;;;;;0.57;0.30;;;14.50;57.30;;;;;;5067033;28;20048;-54
2021/04/11 07:18:51;;;;;;;1.75;0.43;;;14.60;57.00;;;;;;4973146;28;20218;-49
2021/04/11 07:21:49;;;;;;;0.10;0.10;;;14.60;56.80;;;;;;4973305;28;20030;-52
2021/04/11 07:24:44;;;;;;;3.30;0.30;;;14.60;57.00;;;;;;5068640;28;20479;-52
2021/04/11 07:27:42;;;;;;;1.30;0.28;;;14.60;56.80;;;;;;5074281;28;20028;-51
2021/04/11 07:30:45;;;;;;;2.65;0.50;;;14.70;57.20;;;;;;5074048;28;20467;-51
2021/04/11 07:33:32;;;;;;;2.55;0.45;;;14.70;57.20;;;;;;5026814;28;20439;-54
2021/04/11 07:36:21;;;;;;;1.25;0.45;;;14.70;57.10;;;;;;5073953;28;20104;-54
2021/04/11 07:39:23;;;;;;;2.72;0.45;;;14.70;57.00;;;;;;5060300;28;20479;-53
2021/04/11 07:42:07;;;;;;;1.80;0.40;;;14.70;56.80;;;;;;5073931;28;20020;-54
2021/04/11 07:45:02;;;;;;;3.75;0.75;;;14.70;56.90;;;;;;5074206;28;20094;-53
2021/04/11 07:47:59;;;;;;;1.92;0.43;;;14.70;57.10;;;;;;5074123;28;20021;-51
2021/04/11 07:50:46;;;;;;;1.73;0.60;;;14.70;88.60;;;;;;5074138;28;20079;-54
2021/04/11 07:53:49;;;;;;;8.00;0.70;;;14.60;56.30;;;;;;5074593;28;20110;-54
2021/04/11 07:56:22;;;;;;;2.67;0.60;;;14.60;88.60;;;;;;5073809;28;20095;-53
2021/04/11 07:59:09;;;;;;;2.78;0.60;;;14.50;56.40;;;;;;5073829;28;20467;-53
2021/04/11 08:02:03;;;;;;;3.05;0.70;;;14.60;55.80;;;;;;5073635;28;20029;-55
2021/04/11 08:04:58;;;;;;;2.22;0.60;;;14.60;55.20;;;;;;5073774;28;20025;-51
2021/04/11 08:07:48;;;;;;;1.95;0.57;;;14.60;55.00;;;;;;4984109;28;20047;-53
2021/04/11 08:10:30;;;;;;;2.38;0.50;;;14.90;53.50;;;;;;5073400;28;20028;-55
2021/04/11 08:13:20;;;;;;;3.80;0.68;;;15.20;61.40;;;;;;5073544;28;20032;-55
2021/04/11 08:15:55;;;;;;;1.40;0.60;;;15.20;53.00;;;;;;5073410;28;20107;-55
2021/04/11 08:18:46;;;;;;;3.40;0.60;;;15.80;52.00;;;;;;5073668;28;20470;-54
2021/04/11 08:21:17;;;;;;;1.73;0.60;;;15.80;51.10;;;;;;5073464;28;20024;-54
2021/04/11 08:24:02;;;;;;;3.60;0.57;;;16.10;49.30;;;;;;5073392;28;20056;-53
2021/04/11 08:26:46;;;;;;;4.32;0.63;;;16.10;49.80;;;;;;5073490;28;20028;-55
2021/04/11 08:29:48;;;;;;;0.77;0.50;;;16.40;72.60;;;;;;5072907;28;20028;-53
2021/04/11 08:32:26;;;;;;;1.05;0.30;;;16.50;81.70;;;;;;5072027;28;20095;-52
2021/04/11 08:34:51;;;;;;;3.20;0.50;;;16.40;49.10;;;;;;5072507;28;20028;-53
2021/04/11 08:37:42;;;;;;;3.80;0.65;;;16.40;49.20;;;;;;5073195;28;20031;-51
2021/04/11 08:40:31;;;;;;;1.45;0.50;;;16.30;53.40;;;;;;5073207;28;20387;-52
2021/04/11 08:43:09;;;;;;;2.22;0.50;;;16.30;54.20;;;;;;5073297;28;20020;-55
2021/04/11 08:46:02;;;;;;;1.13;0.40;;;16.20;50.50;;;;;;5073144;28;20384;-52
2021/04/11 08:48:42;;;;;;;1.90;0.40;;;16.40;79.30;;;;;;5073152;28;20024;-55
2021/04/11 08:51:11;;;;;;;0.73;0.45;;;16.40;75.30;;;;;;5073046;28;20041;-55
2021/04/11 08:53:43;;;;;;;2.33;0.45;;;16.70;80.80;;;;;;5073651;27;20136;-53
2021/04/11 08:56:19;;;;;;;1.77;0.40;;;16.70;65.80;;;;;;5072865;28;20044;-54
2021/04/11 08:58:47;;;;;;;2.65;0.32;;;;;;;;;;5073067;28;20017;-54
2021/04/11 09:01:37;;;;;;;2.50;0.35;;;16.70;53.80;;;;;;5072844;28;20039;-53
2021/04/11 09:04:13;;;;;;;;;;;16.50;54.30;;;;;;5072946;28;20032;-54
2021/04/11 09:07:10;;;;;;;1.48;0.60;;;16.90;56.10;;;;;;5072481;28;20345;-55
2021/04/11 09:09:51;;;;;;;3.17;0.50;;;16.70;51.90;;;;;;5072359;28;20028;-55
2021/04/11 09:12:36;;;;;;;2.42;0.60;;;16.60;54.20;;;;;;5072488;28;20068;-54
2021/04/11 09:15:10;;;;;;;3.17;0.50;;;16.90;60.00;;;;;;5072562;28;20491;-53
2021/04/11 09:17:36;;;;;;;3.17;0.40;;;;;;;;;;5072488;28;20483;-54
2021/04/11 09:20:24;;;;;;;4.28;0.40;;;16.80;54.50;;;;;;5072505;28;20024;-54
2021/04/11 09:22:57;;;;;;;0.68;0.32;;;16.90;62.00;;;;;;5072481;28;20024;-53
2021/04/11 09:25:29;;;;;;;0.75;0.30;;;16.90;51.70;;;;;;5072650;28;20027;-54
2021/04/11 09:28:04;;;;;;;1.20;0.28;;;17.00;84.10;;;;;;5072254;28;20418;-53
2021/04/11 09:30:45;;;;;;;2.45;0.40;;;16.80;52.40;;;;;;5072234;28;20157;-55
2021/04/11 09:33:24;;;;;;;2.25;0.40;;;17.00;57.20;;;;;;5054133;28;20071;-52
2021/04/11 09:36:33;;;;;;;1.52;0.30;;;16.90;56.80;;;;;;5072113;28;20016;-55
2021/04/11 09:39:15;;;;;;;0.77;0.40;;;16.90;58.00;;;;;;5072383;28;20024;-54
2021/04/11 09:42:00;;;;;;;4.88;0.30;;;16.80;52.40;;;;;;5072475;28;20315;-54
2021/04/11 09:44:39;;;;;;;3.40;0.50;;;16.80;56.80;;;;;;5071903;28;20016;-54
2021/04/11 09:47:07;;;;;;;1.27;0.30;;;17.10;63.60;;;;;;5072083;28;20033;-53
2021/04/11 09:49:39;;;;;;;1.35;0.40;;;16.80;52.30;;;;;;5072154;28;20375;-54
2021/04/11 09:52:05;;;;;;;1.30;0.57;;;;;;;;;;5073155;27;20143;-54
2021/04/11 09:54:44;;;;;;;0.90;0.30;;;16.80;57.20;;;;;;5072163;28;20437;-54
2021/04/11 09:57:36;;;;;;;2.67;0.43;;;16.80;51.90;;;;;;5071914;28;20028;-53
2021/04/11 10:00:16;;;;;;;2.15;0.30;;;16.80;51.80;;;;;;5071024;28;20040;-52
2021/04/11 10:02:44;;;;;;;1.10;0.47;;;16.80;51.70;;;;;;5053967;28;20059;-55
2021/04/11 10:05:31;;;;;;;3.20;0.47;;;16.80;51.70;;;;;;5071799;28;20025;-55
2021/04/11 10:08:21;;;;;;;1.40;0.30;;;16.80;51.70;;;;;;5071737;28;20382;-54
2021/04/11 10:11:09;;;;;;;4.68;0.60;;;16.90;51.80;;;;;;5071946;28;20411;-54
2021/04/11 10:13:59;;;;;;;2.40;0.45;;;16.90;51.80;;;;;;5071679;28;20387;-54
2021/04/11 10:16:30;;;;;;;3.90;0.65;;;16.90;51.70;;;;;;5071633;28;20105;-55
2021/04/11 10:18:58;;;;;;;0.95;0.43;;;16.90;51.50;;;;;;5071823;28;20032;-54
2021/04/11 10:21:31;;;;;;;2.05;0.40;;;17.00;51.60;;;;;;5071565;28;20032;-55
2021/04/11 10:24:04;;;;;;;3.60;0.30;;;17.00;51.50;;;;;;5071509;28;20052;-55
2021/04/11 10:26:46;;;;;;;3.35;0.70;;;16.80;52.70;;;;;;5071533;28;20379;-54
2021/04/11 10:29:41;;;;;;;2.15;0.30;;;17.00;51.60;;;;;;5071451;28;20111;-53
2021/04/11 10:32:27;;;;;;;2.47;0.35;;;16.80;51.40;;;;;;5069117;28;20036;-55
2021/04/11 10:35:18;;;;;;;0.60;0.40;;;17.10;75.50;;;;;;5075307;28;20056;-54
2021/04/11 10:38:06;;;;;;;0.85;0.30;;;17.00;51.30;;;;;;5061206;28;20037;-54
2021/04/11 10:40:51;;;;;;;1.17;0.32;;;17.20;65.50;;;;;;5057368;28;20083;-54
2021/04/11 10:43:46;;;;;;;3.78;0.52;;;17.10;51.30;;;;;;5075056;28;20021;-54
2021/04/11 10:46:22;;;;;;;1.60;0.30;;;17.10;50.50;;;;;;5075271;28;20036;-56
2021/04/11 10:49:12;;;;;;;3.30;0.30;;;16.90;51.00;;;;;;5075086;28;20017;-55
2021/04/11 10:51:40;;;;;;;1.27;0.40;;;17.10;51.00;;;;;;5074895;28;20090;-54
2021/04/11 10:54:47;;;;;;;1.90;0.40;;;17.10;50.90;;;;;;5076182;28;20044;-55
2021/04/11 10:57:13;;;;;;;1.67;0.50;;;17.10;50.70;;;;;;4973725;28;20030;-54
2021/04/11 11:00:09;;;;;;;0.70;0.30;;;16.90;50.40;;;;;;5053567;28;20040;-53
2021/04/11 11:02:37;;;;;;;1.30;0.30;;;17.10;50.40;;;;;;5074908;28;20060;-55
2021/04/11 11:05:03;;;;;;;1.27;0.30;;;17.70;50.70;;;;;;5074982;28;20028;-56
2021/04/11 11:07:41;;;;;;;2.28;0.40;;;17.10;50.40;;;;;;5074570;28;20029;-53
2021/04/11 11:10:34;;;;;;;1.30;0.35;;;17.10;50.30;;;;;;5074767;28;20032;-55
2021/04/11 11:13:15;;;;;;;1.38;0.73;;;17.20;50.30;;;;;;5074625;28;20020;-55
2021/04/11 11:16:22;;;;;;;1.60;0.45;;;17.20;50.20;;;;;;5074475;28;20411;-56
2021/04/11 11:18:58;;;;;;;0.82;0.40;;;17.30;50.00;;;;;;5074564;28;20078;-55
2021/04/11 11:22:00;;;;;;;1.73;0.40;;;17.30;50.00;;;;;;5074732;28;20024;-56
2021/04/11 11:24:56;;;;;;;1.80;0.25;;;17.30;50.00;;;;;;5074337;28;20024;-53
2021/04/11 11:27:45;;;;;;;1.85;0.30;;;17.30;50.00;;;;;;5074194;28;20448;-56
2021/04/11 11:30:26;;;;;;;0.90;0.38;;;17.30;49.90;;;;;;5074489;28;20016;-55
2021/04/11 11:33:22;;;;;;;1.15;0.45;;;17.20;49.80;;;;;;5074471;28;20082;-56
2021/04/11 11:36:02;;;;;;;0.30;0.20;;;17.20;49.80;;;;;;5063450;28;20040;-55
2021/04/11 11:39:06;;;;;;;1.35;0.30;;;17.20;50.00;;;;;;5074188;28;20020;-56
2021/04/11 11:41:35;;;;;;;0.77;0.40;;;17.20;49.60;;;;;;5074019;28;20039;-56
2021/04/11 11:44:21;;;;;;;1.15;0.40;;;17.10;49.10;;;;;;5073917;28;20045;-56
2021/04/11 11:47:19;;;;;;;3.22;0.70;;;17.10;47.70;;;;;;5074127;28;20021;-55
2021/04/11 11:50:21;;;;;;;0.90;0.38;;;17.10;47.40;;;;;;5074135;28;20043;-56
2021/04/11 11:53:11;;;;;;;3.50;0.65;;;17.00;47.50;;;;;;5074206;27;20410;-56
2021/04/11 11:55:44;;;;;;;0.80;0.40;;;17.00;47.30;;;;;;5073845;28;20036;-56
2021/04/11 11:58:18;;;;;;;2.20;0.43;;;16.90;46.90;;;;;;5073716;28;20024;-56
2021/04/11 12:00:55;;;;;;;1.25;0.50;;;17.00;72.90;;;;;;5073634;28;20032;-56
2021/04/11 12:03:31;;;;;;;1.80;0.28;;;17.00;46.50;;;;;;5073603;28;20012;-56
2021/04/11 12:06:09;;;;;;;0.65;0.30;;;17.00;45.90;;;;;;5073671;28;20028;-55
2021/04/11 12:08:53;;;;;;;4.50;0.63;;;17.00;46.00;;;;;;5073816;28;20230;-55
2021/04/11 12:11:47;;;;;;;1.95;0.50;;;16.80;45.90;;;;;;5073397;28;20066;-56
2021/04/11 12:14:31;;;;;;;1.42;0.55;;;17.00;45.80;;;;;;5073400;28;20513;-56
2021/04/11 12:17:13;;;;;;;3.45;0.70;;;17.10;46.00;;;;;;5073555;28;20040;-56
2021/04/11 12:19:57;;;;;;;1.90;0.40;;;17.10;45.90;;;;;;5073349;28;20618;-54
2021/04/11 12:22:50;;;;;;;5.30;0.85;;;17.10;45.60;;;;;;5073240;28;20028;-56
2021/04/11 12:25:20;;;;;;;0.93;0.30;;;17.10;45.20;;;;;;5073298;28;20383;-56
2021/04/11 12:27:47;;;;;;;4.30;0.50;;;17.10;45.20;;;;;;5073018;28;20017;-56
2021/04/11 12:30:25;;;;;;;2.55;0.52;;;16.90;72.40;;;;;;5073061;28;20024;-56
2021/04/11 12:32:56;;;;;;;1.85;0.43;;;17.10;44.70;;;;;;5072919;28;20049;-56
2021/04/11 12:35:43;;;;;;;1.00;0.47;;;16.90;45.00;;;;;;5072839;28;20039;-56
2021/04/11 12:38:41;;;;;;;3.17;0.60;;;17.20;44.80;;;;;;5072881;28;20033;-55
2021/04/11 12:41:17;;;;;;;0.82;0.40;;;17.20;44.90;;;;;;5034473;28;20033;-54
2021/04/11 12:43:57;;;;;;;0.95;0.30;;;17.10;44.70;;;;;;5072821;28;20356;-56
2021/04/11 12:46:30;;;;;;;0.98;0.30;;;17.30;44.70;;;;;;5072806;28;20092;-56
2021/04/11 12:49:13;;;;;;;2.08;0.25;;;17.10;44.60;;;;;;5072773;28;20429;-56
2021/04/11 12:51:52;;;;;;;2.10;0.45;;;17.30;44.40;;;;;;5072572;28;20038;-55
2021/04/11 12:54:43;;;;;;;2.80;0.60;;;17.10;44.20;;;;;;5074056;27;20053;-55
2021/04/11 12:57:26;;;;;;;1.65;0.52;;;17.40;74.00;;;;;;5071996;28;20104;-56
2021/04/11 13:00:19;;;;;;;0.68;0.38;;;17.30;72.00;;;;;;5072412;28;20028;-55
2021/04/11 13:03:03;;;;;;;1.08;0.35;;;17.20;44.50;;;;;;5072322;28;20024;-55
2021/04/11 13:05:51;;;;;;;2.20;0.45;;;17.20;43.60;;;;;;5072407;28;20028;-52
2021/04/11 13:08:42;;;;;;;1.33;0.20;;;17.10;72.10;;;;;;5072349;28;20063;-55
2021/04/11 13:11:21;;;;;;;2.25;0.50;;;17.20;72.20;;;;;;5053707;28;20032;-56
2021/04/11 13:14:14;;;;;;;0.98;0.30;;;17.10;44.30;;;;;;5070626;28;20479;-56
2021/04/11 13:16:56;;;;;;;0.70;0.30;;;17.10;44.50;;;;;;5069680;28;20027;-55
2021/04/11 13:19:25;;;;;;;2.40;0.38;;;17.10;44.70;;;;;;5070930;28;20479;-56
2021/04/11 13:22:01;;;;;;;1.70;0.45;;;17.00;73.00;;;;;;5072350;28;20028;-56
2021/04/11 13:24:39;;;;;;;0.45;0.30;;;17.00;44.90;;;;;;5054116;28;20454;-56
2021/04/11 13:27:09;;;;;;;2.22;0.40;;;17.00;50.90;;;;;;5072021;28;20032;-56
2021/04/11 13:29:48;;;;;;;1.40;0.38;;;17.60;45.70;;;;;;5072090;28;20025;-56
2021/04/11 13:32:39;;;;;;;0.68;0.32;;;16.80;45.30;;;;;;5072021;28;20040;-54
2021/04/11 13:35:34;;;;;;;3.13;0.35;;;17.10;46.00;;;;;;5055093;28;20030;-56
2021/04/11 13:38:39;;;;;;;1.13;0.30;;;17.00;45.60;;;;;;5072060;28;20060;-54
2021/04/11 13:41:21;;;;;;;0.95;0.35;;;16.90;45.60;;;;;;5071979;28;20094;-56
2021/04/11 13:44:16;;;;;;;1.77;0.47;;;16.90;75.50;;;;;;5071964;28;20086;-56
2021/04/11 13:47:18;;;;;;;1.75;0.50;;;16.80;45.90;;;;;;5035195;28;20415;-56
2021/04/11 13:50:09;;;;;;;0.68;0.40;;;16.60;74.70;;;;;;4988143;28;20462;-56